createdAt,value
2017-10-15T00:01:41.783Z,99.90
2017-10-15T00:04:09.232Z,99.90
2017-10-15T00:06:36.680Z,99.90
2017-10-15T00:09:04.131Z,99.90
2017-10-15T00:11:31.573Z,99.90
2017-10-15T00:13:59.015Z,99.90
2017-10-15T00:16:26.451Z,99.90
2017-10-15T00:18:53.903Z,99.90
2017-10-15T00:21:22.130Z,99.90
2017-10-15T00:23:49.566Z,99.90
2017-10-15T00:26:17.011Z,99.90
2017-10-15T00:28:44.479Z,99.90
2017-10-15T00:31:11.923Z,99.90
2017-10-15T00:33:39.363Z,99.90
2017-10-15T00:36:06.820Z,99.90
2017-10-15T00:38:34.255Z,99.90
2017-10-15T00:41:02.465Z,99.90
2017-10-15T00:43:29.907Z,99.90
2017-10-15T00:45:57.351Z,99.90
2017-10-15T00:48:25.562Z,99.90
2017-10-15T00:50:53.008Z,99.90
2017-10-15T00:53:20.451Z,99.90
2017-10-15T00:55:47.903Z,99.90
2017-10-15T00:58:15.339Z,99.90
2017-10-15T01:00:43.556Z,99.90
2017-10-15T01:03:11.008Z,99.90
2017-10-15T01:05:38.459Z,99.90
2017-10-15T01:08:05.895Z,99.90
2017-10-15T01:10:34.107Z,99.90
2017-10-15T01:13:01.547Z,99.90
2017-10-15T01:15:29.016Z,99.90
2017-10-15T01:17:56.459Z,99.90
2017-10-15T01:20:23.916Z,99.90
2017-10-15T01:22:51.356Z,99.90
2017-10-15T01:25:18.823Z,99.90
2017-10-15T01:27:46.258Z,99.90
2017-10-15T01:30:14.469Z,99.90
2017-10-15T01:32:41.915Z,99.90
2017-10-15T01:35:09.368Z,99.90
2017-10-15T01:37:36.823Z,99.90
2017-10-15T01:40:04.272Z,99.90
2017-10-15T01:42:31.730Z,99.90
2017-10-15T01:44:59.167Z,99.90
2017-10-15T01:47:27.389Z,99.90
2017-10-15T01:49:54.823Z,99.90
2017-10-15T01:52:22.276Z,99.90
2017-10-15T01:54:49.714Z,99.90
2017-10-15T01:57:17.160Z,99.90
2017-10-15T01:59:44.601Z,99.90
2017-10-15T02:02:12.052Z,99.90
2017-10-15T02:04:39.497Z,99.90
2017-10-15T02:07:06.940Z,99.90
2017-10-15T02:09:34.369Z,99.90
2017-10-15T02:12:01.828Z,99.90
2017-10-15T02:14:29.281Z,99.90
2017-10-15T02:16:56.744Z,99.90
2017-10-15T02:19:24.175Z,99.90
2017-10-15T02:21:51.608Z,99.90
2017-10-15T02:24:19.820Z,99.90
2017-10-15T02:26:47.277Z,99.90
2017-10-15T02:29:14.732Z,99.90
2017-10-15T02:31:42.170Z,99.90
2017-10-15T02:34:10.380Z,99.90
2017-10-15T02:36:37.819Z,99.90
2017-10-15T02:39:05.262Z,99.90
2017-10-15T02:41:32.695Z,99.90
2017-10-15T02:44:00.911Z,99.90
2017-10-15T02:46:28.359Z,99.90
2017-10-15T02:48:55.803Z,99.90
2017-10-15T02:51:23.238Z,99.90
2017-10-15T02:53:51.448Z,99.90
2017-10-15T02:56:18.905Z,99.90
2017-10-15T02:58:46.360Z,99.90
2017-10-15T03:01:13.809Z,99.90
2017-10-15T03:03:41.243Z,99.90
2017-10-15T03:06:09.467Z,99.90
2017-10-15T03:08:36.911Z,99.90
2017-10-15T03:11:04.361Z,99.90
2017-10-15T03:13:31.799Z,99.90
2017-10-15T03:15:59.243Z,99.90
2017-10-15T03:18:27.452Z,99.90
2017-10-15T03:20:54.899Z,99.90
2017-10-15T03:23:22.335Z,99.90
2017-10-15T03:25:49.783Z,99.90
2017-10-15T03:28:17.988Z,99.90
2017-10-15T03:30:45.442Z,99.90
2017-10-15T03:33:12.880Z,99.90
2017-10-15T03:35:40.320Z,99.90
2017-10-15T03:38:08.523Z,99.90
2017-10-15T03:40:35.972Z,99.90
2017-10-15T03:43:03.408Z,99.90
2017-10-15T03:45:31.631Z,99.90
2017-10-15T03:47:59.072Z,99.90
2017-10-15T03:50:26.521Z,99.90
2017-10-15T03:52:53.955Z,99.90
2017-10-15T03:55:21.400Z,99.90
2017-10-15T03:57:49.607Z,99.90
2017-10-15T04:00:17.063Z,99.90
2017-10-15T04:02:44.492Z,99.90
2017-10-15T04:05:12.718Z,99.90
2017-10-15T04:07:40.160Z,99.90
2017-10-15T04:10:07.603Z,99.90
2017-10-15T04:12:35.036Z,99.90
2017-10-15T04:15:03.247Z,99.90
2017-10-15T04:17:30.691Z,99.90
2017-10-15T04:19:58.131Z,99.90
2017-10-15T04:22:25.574Z,99.90
2017-10-15T04:24:53.775Z,99.90
2017-10-15T04:27:21.231Z,99.90
2017-10-15T04:29:48.687Z,99.90
2017-10-15T04:32:16.143Z,99.90
2017-10-15T04:34:43.588Z,99.90
2017-10-15T04:37:11.029Z,99.90
2017-10-15T04:39:39.236Z,99.90
2017-10-15T04:42:06.687Z,99.90
2017-10-15T04:44:34.143Z,99.90
2017-10-15T04:47:01.596Z,99.90
2017-10-15T04:49:29.032Z,99.90
2017-10-15T04:51:56.471Z,99.90
2017-10-15T04:54:24.690Z,99.90
2017-10-15T04:56:52.142Z,99.90
2017-10-15T04:59:19.570Z,99.90
2017-10-15T05:01:47.024Z,99.90
2017-10-15T05:04:15.235Z,99.90
2017-10-15T05:06:42.685Z,99.90
2017-10-15T05:09:10.136Z,99.90
2017-10-15T05:11:37.608Z,99.90
2017-10-15T05:14:05.049Z,99.90
2017-10-15T05:16:32.491Z,99.90
2017-10-15T05:18:59.935Z,99.90
2017-10-15T05:21:28.155Z,99.90
2017-10-15T05:23:55.612Z,99.90
2017-10-15T05:26:23.055Z,99.90
2017-10-15T05:28:50.503Z,99.90
2017-10-15T05:31:17.946Z,99.90
2017-10-15T05:33:45.384Z,99.90
2017-10-15T05:36:13.586Z,99.90
2017-10-15T05:38:41.131Z,99.90
2017-10-15T05:41:08.559Z,99.90
2017-10-15T05:43:36.775Z,99.90
2017-10-15T05:46:04.211Z,99.90
2017-10-15T05:48:31.648Z,99.90
2017-10-15T05:50:59.860Z,99.90
2017-10-15T05:53:27.299Z,99.90
2017-10-15T05:55:54.739Z,99.90
2017-10-15T05:58:22.944Z,99.90
2017-10-15T06:00:50.379Z,99.90
2017-10-15T06:03:17.815Z,99.90
2017-10-15T06:05:46.019Z,99.90
2017-10-15T06:08:13.462Z,99.90
2017-10-15T06:10:41.660Z,99.90
2017-10-15T06:13:09.118Z,99.90
2017-10-15T06:15:36.543Z,99.90
2017-10-15T06:18:04.744Z,99.90
2017-10-15T06:20:32.887Z,99.90
2017-10-15T06:23:00.327Z,99.90
2017-10-15T06:25:27.764Z,99.90
2017-10-15T06:27:55.202Z,99.90
2017-10-15T06:30:22.643Z,99.90
2017-10-15T06:32:50.075Z,99.90
2017-10-15T06:35:17.519Z,99.90
2017-10-15T06:37:45.724Z,99.90
2017-10-15T06:40:13.171Z,99.90
2017-10-15T06:42:40.603Z,99.90
2017-10-15T06:45:08.811Z,99.90
2017-10-15T06:47:36.251Z,99.90
2017-10-15T06:50:03.692Z,99.90
2017-10-15T06:52:31.895Z,99.90
2017-10-15T06:54:59.351Z,99.90
2017-10-15T06:57:26.810Z,99.90
2017-10-15T06:59:54.267Z,99.90
2017-10-15T07:02:21.702Z,99.90
2017-10-15T07:04:49.142Z,99.90
2017-10-15T07:07:17.348Z,99.90
2017-10-15T07:09:44.805Z,99.90
2017-10-15T07:12:12.253Z,99.90
2017-10-15T07:14:39.685Z,99.90
2017-10-15T07:17:07.908Z,99.90
2017-10-15T07:19:35.352Z,99.90
2017-10-15T07:22:02.810Z,99.90
2017-10-15T07:24:30.248Z,99.90
2017-10-15T07:26:57.696Z,99.90
2017-10-15T07:29:25.904Z,99.90
2017-10-15T07:31:53.359Z,99.90
2017-10-15T07:34:20.808Z,99.90
2017-10-15T07:36:48.258Z,99.90
2017-10-15T07:39:15.698Z,99.90
2017-10-15T07:41:43.151Z,99.90
2017-10-15T07:44:10.583Z,99.90
2017-10-15T07:46:38.799Z,99.90
2017-10-15T07:49:06.234Z,99.90
2017-10-15T07:51:33.683Z,99.90
2017-10-15T07:54:01.911Z,99.90
2017-10-15T07:56:29.363Z,99.90
2017-10-15T07:58:56.820Z,99.90
2017-10-15T08:01:24.275Z,99.90
2017-10-15T08:03:51.724Z,99.90
2017-10-15T08:06:19.179Z,99.90
2017-10-15T08:08:46.624Z,99.90
2017-10-15T08:11:14.065Z,99.90
2017-10-15T08:13:41.512Z,99.90
2017-10-15T08:16:08.955Z,99.90
2017-10-15T08:18:37.176Z,99.90
2017-10-15T08:21:05.393Z,99.90
2017-10-15T08:23:32.843Z,99.90
2017-10-15T08:26:00.287Z,99.90
2017-10-15T08:28:27.744Z,99.90
2017-10-15T08:30:55.200Z,99.90
2017-10-15T08:33:22.819Z,99.90
2017-10-15T08:35:50.280Z,99.90
2017-10-15T08:38:17.735Z,99.90
2017-10-15T08:40:45.176Z,99.90
2017-10-15T08:43:12.639Z,99.90
2017-10-15T08:45:40.079Z,99.90
2017-10-15T08:48:07.532Z,99.90
2017-10-15T08:50:35.757Z,99.90
2017-10-15T08:53:03.227Z,99.90
2017-10-15T08:55:30.671Z,99.90
2017-10-15T08:57:58.123Z,99.90
2017-10-15T09:00:25.580Z,99.90
2017-10-15T09:02:53.024Z,99.90
2017-10-15T09:05:20.496Z,99.90
2017-10-15T09:07:47.940Z,99.90
2017-10-15T09:10:15.407Z,99.90
2017-10-15T09:12:42.851Z,99.90
2017-10-15T09:15:10.308Z,99.90
2017-10-15T09:17:37.763Z,99.90
2017-10-15T09:20:05.236Z,99.90
2017-10-15T09:22:33.439Z,99.90
2017-10-15T09:25:01.772Z,99.90
2017-10-15T09:27:45.007Z,99.90
2017-10-15T09:30:12.458Z,99.90
2017-10-15T09:32:39.900Z,99.90
2017-10-15T09:35:07.352Z,99.90
2017-10-15T09:37:34.808Z,99.90
2017-10-15T09:40:02.265Z,99.90
2017-10-15T09:42:29.719Z,99.90
2017-10-15T09:44:57.176Z,99.90
2017-10-15T09:47:24.631Z,99.90
2017-10-15T09:49:52.087Z,99.90
2017-10-15T09:52:19.531Z,99.90
2017-10-15T09:54:47.000Z,99.90
2017-10-15T09:57:14.446Z,99.90
2017-10-15T09:59:41.889Z,99.90
2017-10-15T10:02:09.335Z,99.90
2017-10-15T10:04:37.546Z,99.90
2017-10-15T10:07:05.099Z,99.90
2017-10-15T10:09:32.535Z,99.90
2017-10-15T10:11:59.988Z,99.60
2017-10-15T10:14:27.435Z,98.70
2017-10-15T10:16:55.652Z,99.90
2017-10-15T10:19:23.098Z,99.90
2017-10-15T10:21:50.551Z,99.90
2017-10-15T10:24:17.998Z,99.90
2017-10-15T10:26:45.439Z,99.40
2017-10-15T10:29:13.651Z,98.50
2017-10-15T10:31:41.127Z,98.50
2017-10-15T10:34:08.571Z,97.90
2017-10-15T10:36:36.031Z,99.90
2017-10-15T10:39:03.480Z,99.70
2017-10-15T10:41:30.945Z,98.00
2017-10-15T10:43:58.387Z,97.20
2017-10-15T10:46:25.831Z,96.00
2017-10-15T10:48:53.281Z,95.00
2017-10-15T10:51:20.737Z,93.30
2017-10-15T10:53:48.176Z,97.10
2017-10-15T10:56:16.387Z,95.60
2017-10-15T10:58:43.835Z,95.60
2017-10-15T11:01:11.283Z,95.00
2017-10-15T11:03:38.747Z,96.60
2017-10-15T11:06:06.199Z,95.20
2017-10-15T11:08:33.652Z,93.70
2017-10-15T11:11:01.112Z,93.40
2017-10-15T11:13:28.563Z,93.10
2017-10-15T11:15:56.007Z,94.00
2017-10-15T11:18:23.474Z,93.40
2017-10-15T11:20:50.903Z,91.50
2017-10-15T11:23:19.145Z,91.20
2017-10-15T11:25:46.585Z,91.10
2017-10-15T11:28:14.043Z,90.90
2017-10-15T11:30:41.487Z,97.10
2017-10-15T11:33:08.944Z,96.70
2017-10-15T11:35:36.392Z,94.00
2017-10-15T11:38:03.852Z,94.20
2017-10-15T11:40:31.299Z,92.50
2017-10-15T11:42:58.771Z,97.40
2017-10-15T11:45:26.225Z,95.60
2017-10-15T11:47:53.672Z,93.40
2017-10-15T11:50:21.124Z,91.60
2017-10-15T11:52:48.585Z,91.70
2017-10-15T11:55:16.035Z,93.40
2017-10-15T11:57:43.511Z,97.10
2017-10-15T12:00:10.967Z,95.60
2017-10-15T12:02:38.408Z,94.30
2017-10-15T12:05:05.868Z,94.40
2017-10-15T12:07:33.317Z,94.60
2017-10-15T12:10:00.786Z,93.70
2017-10-15T12:12:28.233Z,92.90
2017-10-15T12:14:55.690Z,92.50
2017-10-15T12:17:23.202Z,92.80
2017-10-15T12:19:50.654Z,95.50
2017-10-15T12:22:18.095Z,94.70
2017-10-15T12:24:45.548Z,94.50
2017-10-15T12:27:12.993Z,92.80
2017-10-15T12:29:40.450Z,93.90
2017-10-15T12:32:07.903Z,92.60
2017-10-15T12:34:35.365Z,92.20
2017-10-15T12:37:02.820Z,93.10
2017-10-15T12:39:30.267Z,96.80
2017-10-15T12:41:57.716Z,96.30
2017-10-15T12:44:25.171Z,97.00
2017-10-15T12:46:52.629Z,96.60
2017-10-15T12:49:20.087Z,96.00
2017-10-15T12:51:47.543Z,98.40
2017-10-15T12:54:15.009Z,97.80
2017-10-15T12:56:42.467Z,95.80
2017-10-15T12:59:09.922Z,96.00
2017-10-15T13:01:37.376Z,94.20
2017-10-15T13:04:04.832Z,93.70
2017-10-15T13:06:32.295Z,94.70
2017-10-15T13:08:59.748Z,94.10
2017-10-15T13:11:27.205Z,92.70
2017-10-15T13:13:54.651Z,94.80
2017-10-15T13:16:22.114Z,96.20
2017-10-15T13:18:50.333Z,95.00
2017-10-15T13:21:18.554Z,94.30
2017-10-15T13:23:46.024Z,94.30
2017-10-15T13:26:13.468Z,93.80
2017-10-15T13:28:40.911Z,95.80
2017-10-15T13:31:08.371Z,95.60
2017-10-15T13:33:35.808Z,95.20
2017-10-15T13:36:03.275Z,94.80
2017-10-15T13:38:30.731Z,95.40
2017-10-15T13:40:58.174Z,98.70
2017-10-15T13:43:25.645Z,99.40
2017-10-15T13:45:53.090Z,99.90
2017-10-15T13:48:20.856Z,99.90
2017-10-15T13:50:48.304Z,99.90
2017-10-15T13:53:15.806Z,99.90
2017-10-15T13:55:44.011Z,99.90
2017-10-15T13:58:12.228Z,99.90
2017-10-15T14:00:39.680Z,99.90
2017-10-15T14:03:07.135Z,99.90
2017-10-15T14:05:34.575Z,99.90
2017-10-15T14:08:02.024Z,99.90
2017-10-15T14:10:30.251Z,98.70
2017-10-15T14:12:57.705Z,98.70
2017-10-15T14:15:25.147Z,98.00
2017-10-15T14:17:52.591Z,98.30
2017-10-15T14:20:20.052Z,99.60
2017-10-15T14:22:47.501Z,99.80
2017-10-15T14:25:14.951Z,99.80
2017-10-15T14:27:42.391Z,99.70
2017-10-15T14:30:10.614Z,99.90
2017-10-15T14:32:38.060Z,99.90
2017-10-15T14:35:05.501Z,99.90
2017-10-15T14:37:32.964Z,99.90
2017-10-15T14:40:00.412Z,99.90
2017-10-15T14:42:33.714Z,99.90
2017-10-15T14:45:01.165Z,99.90
2017-10-15T14:47:28.621Z,99.90
2017-10-15T14:49:56.067Z,99.90
2017-10-15T14:52:23.522Z,99.90
2017-10-15T14:54:50.979Z,99.90
2017-10-15T14:57:18.421Z,99.90
2017-10-15T14:59:45.905Z,99.90
2017-10-15T15:02:13.349Z,99.90
2017-10-15T15:04:40.811Z,99.90
2017-10-15T15:07:08.251Z,99.90
2017-10-15T15:09:35.702Z,99.90
2017-10-15T15:12:03.149Z,99.90
2017-10-15T15:14:31.375Z,99.90
2017-10-15T15:16:58.832Z,99.90
2017-10-15T15:19:26.328Z,99.90
2017-10-15T15:21:54.547Z,99.90
2017-10-15T15:24:22.000Z,99.90
2017-10-15T15:26:49.457Z,99.90
2017-10-15T15:29:16.912Z,99.90
2017-10-15T15:31:44.363Z,99.90
2017-10-15T15:34:11.820Z,99.90
2017-10-15T15:36:39.280Z,99.90
2017-10-15T15:39:06.735Z,99.90
2017-10-15T15:41:34.198Z,99.90
2017-10-15T15:44:01.651Z,99.90
2017-10-15T15:46:29.107Z,99.90
2017-10-15T15:48:56.564Z,99.90
2017-10-15T15:51:24.025Z,99.90
2017-10-15T15:53:51.495Z,99.90
2017-10-15T15:56:18.949Z,99.90
2017-10-15T15:58:46.414Z,99.90
2017-10-15T16:01:14.629Z,99.90
2017-10-15T16:03:42.088Z,99.90
2017-10-15T16:06:10.307Z,99.90
2017-10-15T16:08:38.527Z,99.90
2017-10-15T16:11:06.897Z,99.90
2017-10-15T16:13:34.354Z,99.90
2017-10-15T16:16:02.580Z,99.90
2017-10-15T16:18:30.076Z,99.90
2017-10-15T16:20:57.537Z,99.90
2017-10-15T16:23:25.000Z,99.90
2017-10-15T16:25:52.498Z,99.90
2017-10-15T16:28:19.959Z,99.90
2017-10-15T16:30:47.425Z,99.90
2017-10-15T16:33:14.880Z,99.90
2017-10-15T16:35:42.361Z,99.90
2017-10-15T16:38:09.832Z,99.90
2017-10-15T16:40:37.289Z,99.90
2017-10-15T16:43:04.750Z,99.90
2017-10-15T16:45:32.221Z,99.90
2017-10-15T16:48:00.435Z,99.90
2017-10-15T16:50:27.900Z,99.90
2017-10-15T16:52:55.371Z,99.90
2017-10-15T16:55:39.380Z,99.90
2017-10-15T16:58:06.836Z,99.90
2017-10-15T17:00:34.297Z,99.90
2017-10-15T17:03:01.747Z,99.90
2017-10-15T17:05:29.212Z,99.90
2017-10-15T17:07:56.659Z,99.90
2017-10-15T17:10:24.113Z,99.90
2017-10-15T17:12:51.564Z,99.90
2017-10-15T17:15:19.030Z,99.90
2017-10-15T17:17:46.495Z,99.90
2017-10-15T17:20:13.940Z,99.90
2017-10-15T17:22:41.399Z,99.90
2017-10-15T17:25:08.856Z,99.90
2017-10-15T17:27:36.403Z,99.90
2017-10-15T17:30:03.853Z,99.90
2017-10-15T17:32:31.324Z,99.90
2017-10-15T17:34:58.783Z,99.90
2017-10-15T17:37:26.272Z,99.90
2017-10-15T17:39:53.732Z,99.90
2017-10-15T17:42:21.189Z,99.90
2017-10-15T17:44:48.647Z,99.90
2017-10-15T17:47:16.115Z,99.90
2017-10-15T17:49:55.330Z,99.90
2017-10-15T17:52:22.784Z,99.90
2017-10-15T17:54:50.269Z,99.90
2017-10-15T17:57:18.482Z,99.90
2017-10-15T17:59:45.936Z,99.90
2017-10-15T18:02:16.940Z,99.90
2017-10-15T18:04:45.184Z,99.90
2017-10-15T18:07:12.647Z,99.90
2017-10-15T18:09:40.104Z,99.90
2017-10-15T18:12:07.552Z,99.90
2017-10-15T18:14:35.009Z,99.90
2017-10-15T18:17:02.455Z,99.90
2017-10-15T18:19:29.911Z,99.90
2017-10-15T18:21:57.357Z,99.90
2017-10-15T18:24:24.811Z,99.90
2017-10-15T18:26:52.257Z,99.90
2017-10-15T18:29:19.711Z,99.90
2017-10-15T18:31:47.268Z,99.90
2017-10-15T18:34:14.711Z,99.90
2017-10-15T18:36:42.167Z,99.90
2017-10-15T18:39:09.617Z,99.90
2017-10-15T18:41:37.073Z,99.90
2017-10-15T18:44:04.523Z,99.90
2017-10-15T18:46:32.736Z,99.90
2017-10-15T18:49:00.180Z,99.90
2017-10-15T18:51:27.636Z,99.90
2017-10-15T18:53:55.093Z,99.90
2017-10-15T18:56:22.736Z,99.90
2017-10-15T18:58:50.196Z,99.90
2017-10-15T19:01:17.639Z,99.90
2017-10-15T19:03:45.098Z,99.90
2017-10-15T19:06:13.308Z,99.90
2017-10-15T19:08:41.323Z,99.90
2017-10-15T19:11:10.149Z,99.90
2017-10-15T19:13:37.619Z,99.90
2017-10-15T19:16:05.068Z,99.90
2017-10-15T19:18:32.520Z,99.90
2017-10-15T19:20:59.975Z,99.90
2017-10-15T19:23:27.509Z,99.90
2017-10-15T19:25:55.734Z,99.90
2017-10-15T19:28:23.187Z,99.90
2017-10-15T19:30:50.680Z,99.90
2017-10-15T19:33:18.908Z,99.90
2017-10-15T19:35:46.355Z,99.90
2017-10-15T19:38:13.811Z,99.90
2017-10-15T19:40:41.263Z,99.90
2017-10-15T19:43:08.723Z,99.90
2017-10-15T19:45:36.215Z,99.90
2017-10-15T19:48:04.051Z,99.90
2017-10-15T19:50:31.645Z,99.90
2017-10-15T19:52:59.887Z,99.90
2017-10-15T19:55:27.348Z,99.90
2017-10-15T19:57:54.905Z,99.90
2017-10-15T20:00:22.368Z,99.90
2017-10-15T20:02:49.820Z,99.90
2017-10-15T20:05:18.105Z,99.90
2017-10-15T20:07:45.556Z,99.90
2017-10-15T20:10:13.016Z,99.90
2017-10-15T20:12:40.475Z,99.90
2017-10-15T20:15:07.927Z,99.90
2017-10-15T20:17:35.384Z,99.90
2017-10-15T20:20:02.839Z,99.90
2017-10-15T20:22:30.288Z,99.90
2017-10-15T20:24:57.727Z,99.90
2017-10-15T20:27:25.184Z,99.90
2017-10-15T20:29:52.810Z,99.90
2017-10-15T20:32:21.039Z,99.90
2017-10-15T20:34:48.498Z,99.90
2017-10-15T20:37:15.951Z,99.90
2017-10-15T20:39:43.404Z,99.90
2017-10-15T20:42:10.852Z,99.90
2017-10-15T20:44:38.299Z,99.90
2017-10-15T20:47:05.781Z,99.90
2017-10-15T20:49:33.239Z,99.90
2017-10-15T20:52:00.694Z,99.90
2017-10-15T20:54:28.159Z,99.90
2017-10-15T20:56:55.616Z,99.90
2017-10-15T20:59:23.826Z,99.90
2017-10-15T21:01:52.040Z,99.90
2017-10-15T21:04:19.486Z,99.90
2017-10-15T21:06:46.927Z,99.90
2017-10-15T21:09:14.376Z,99.90
2017-10-15T21:11:41.820Z,99.90
2017-10-15T21:14:10.039Z,99.90
2017-10-15T21:16:37.492Z,99.90
2017-10-15T21:19:04.944Z,99.90
2017-10-15T21:21:32.394Z,99.90
2017-10-15T21:23:59.848Z,99.90
2017-10-15T21:26:27.308Z,99.90
2017-10-15T21:28:54.763Z,99.90
2017-10-15T21:31:22.216Z,99.90
2017-10-15T21:33:49.675Z,99.90
2017-10-15T21:36:17.117Z,99.90
2017-10-15T21:38:44.588Z,99.90
2017-10-15T21:41:12.045Z,99.90
2017-10-15T21:43:39.500Z,99.90
2017-10-15T21:46:06.954Z,99.90
2017-10-15T21:48:34.411Z,99.90
2017-10-15T21:51:01.856Z,99.90
2017-10-15T21:53:29.299Z,99.90
2017-10-15T21:55:57.512Z,99.90
2017-10-15T21:58:24.955Z,99.90
2017-10-15T22:00:52.411Z,99.90
2017-10-15T22:03:19.868Z,99.90
2017-10-15T22:05:47.324Z,99.90
2017-10-15T22:08:14.776Z,99.90
2017-10-15T22:10:42.236Z,99.90
2017-10-15T22:13:09.691Z,99.90
2017-10-15T22:15:37.152Z,99.90
2017-10-15T22:18:04.608Z,99.90
2017-10-15T22:20:38.451Z,99.90
2017-10-15T22:23:05.899Z,99.90
2017-10-15T22:25:34.122Z,99.90
2017-10-15T22:28:01.559Z,99.90
2017-10-15T22:30:29.779Z,99.90
2017-10-15T22:32:57.224Z,99.90
2017-10-15T22:35:24.685Z,99.90
2017-10-15T22:37:52.138Z,99.90
2017-10-15T22:40:19.607Z,99.90
2017-10-15T22:42:47.058Z,99.90
2017-10-15T22:45:14.504Z,99.90
2017-10-15T22:47:41.960Z,99.90
2017-10-15T22:50:09.424Z,99.90
2017-10-15T22:52:36.876Z,99.90
2017-10-15T22:55:04.322Z,99.90
2017-10-15T22:57:31.779Z,99.90
2017-10-15T22:59:59.247Z,99.90
2017-10-15T23:02:26.780Z,99.90
2017-10-15T23:04:54.223Z,99.90
2017-10-15T23:07:21.667Z,99.90
2017-10-15T23:09:49.887Z,99.90
2017-10-15T23:12:17.340Z,99.90
2017-10-15T23:14:44.796Z,99.90
2017-10-15T23:17:12.255Z,99.90
2017-10-15T23:19:39.712Z,99.90
2017-10-15T23:22:07.169Z,99.90
2017-10-15T23:24:34.620Z,99.90
2017-10-15T23:27:02.072Z,99.90
2017-10-15T23:29:29.512Z,99.90
2017-10-15T23:31:56.960Z,99.90
2017-10-15T23:34:25.168Z,99.90
2017-10-15T23:36:52.625Z,99.90
2017-10-15T23:39:20.076Z,99.90
2017-10-15T23:41:47.540Z,99.90
2017-10-15T23:44:14.990Z,99.90
2017-10-15T23:46:42.443Z,99.90
2017-10-15T23:49:09.888Z,99.90
2017-10-15T23:51:37.335Z,99.90
2017-10-15T23:54:04.774Z,99.90
2017-10-15T23:56:32.989Z,99.90
2017-10-15T23:59:00.443Z,99.90
